sensor_id;sensor_type;location;lat;lon;timestamp;P1;durP1;ratioP1;P2;durP2;ratioP2
21621;SDS011;10973;46.706;12.340;2023-02-21T00:00:47;4.13;;;1.87;;
21621;SDS011;10973;46.706;12.340;2023-02-21T00:03:14;2.00;;;1.90;;
21621;SDS011;10973;46.706;12.340;2023-02-21T00:05:42;2.57;;;2.00;;
21621;SDS011;10973;46.706;12.340;2023-02-21T00:08:09;1.93;;;1.80;;
21621;SDS011;10973;46.706;12.340;2023-02-21T00:10:36;2.00;;;1.90;;
21621;SDS011;10973;46.706;12.340;2023-02-21T00:13:04;3.33;;;2.27;;
21621;SDS011;10973;46.706;12.340;2023-02-21T00:15:31;3.10;;;2.63;;
21621;SDS011;10973;46.706;12.340;2023-02-21T00:17:58;4.90;;;2.27;;
21621;SDS011;10973;46.706;12.340;2023-02-21T00:20:25;4.47;;;2.80;;
21621;SDS011;10973;46.706;12.340;2023-02-21T00:22:53;5.03;;;3.40;;
21621;SDS011;10973;46.706;12.340;2023-02-21T00:25:20;4.77;;;2.80;;
21621;SDS011;10973;46.706;12.340;2023-02-21T00:33:15;3.03;;;2.60;;
21621;SDS011;10973;46.706;12.340;2023-02-21T00:35:43;2.43;;;2.23;;
21621;SDS011;10973;46.706;12.340;2023-02-21T00:38:11;2.20;;;2.00;;
21621;SDS011;10973;46.706;12.340;2023-02-21T00:40:38;2.40;;;2.20;;
21621;SDS011;10973;46.706;12.340;2023-02-21T00:43:06;2.90;;;1.80;;
21621;SDS011;10973;46.706;12.340;2023-02-21T00:45:33;3.27;;;2.40;;
21621;SDS011;10973;46.706;12.340;2023-02-21T00:48:00;2.30;;;2.10;;
21621;SDS011;10973;46.706;12.340;2023-02-21T00:50:27;2.10;;;1.93;;
21621;SDS011;10973;46.706;12.340;2023-02-21T00:52:55;2.47;;;2.27;;
21621;SDS011;10973;46.706;12.340;2023-02-21T00:55:22;2.13;;;1.93;;
21621;SDS011;10973;46.706;12.340;2023-02-21T00:57:49;2.10;;;2.00;;
21621;SDS011;10973;46.706;12.340;2023-02-21T01:00:18;2.57;;;2.37;;
21621;SDS011;10973;46.706;12.340;2023-02-21T01:02:49;1.97;;;1.87;;
21621;SDS011;10973;46.706;12.340;2023-02-21T01:09:22;3.70;;;2.33;;
21621;SDS011;10973;46.706;12.340;2023-02-21T01:11:50;2.63;;;2.43;;
21621;SDS011;10973;46.706;12.340;2023-02-21T01:14:17;2.80;;;2.50;;
21621;SDS011;10973;46.706;12.340;2023-02-21T01:16:45;3.57;;;2.87;;
21621;SDS011;10973;46.706;12.340;2023-02-21T01:19:12;4.57;;;3.17;;
21621;SDS011;10973;46.706;12.340;2023-02-21T01:21:41;6.03;;;3.93;;
21621;SDS011;10973;46.706;12.340;2023-02-21T01:24:10;5.57;;;3.90;;
21621;SDS011;10973;46.706;12.340;2023-02-21T01:30:40;4.73;;;3.20;;
21621;SDS011;10973;46.706;12.340;2023-02-21T01:33:09;5.87;;;4.60;;
21621;SDS011;10973;46.706;12.340;2023-02-21T01:35:37;5.70;;;3.70;;
21621;SDS011;10973;46.706;12.340;2023-02-21T01:38:05;5.13;;;4.10;;
21621;SDS011;10973;46.706;12.340;2023-02-21T01:40:32;5.30;;;4.03;;
21621;SDS011;10973;46.706;12.340;2023-02-21T01:42:59;5.93;;;3.20;;
21621;SDS011;10973;46.706;12.340;2023-02-21T01:48:17;4.80;;;3.50;;
21621;SDS011;10973;46.706;12.340;2023-02-21T01:50:48;4.50;;;3.07;;
21621;SDS011;10973;46.706;12.340;2023-02-21T01:53:18;3.30;;;2.93;;
21621;SDS011;10973;46.706;12.340;2023-02-21T01:55:51;2.93;;;2.47;;
21621;SDS011;10973;46.706;12.340;2023-02-21T01:58:22;2.93;;;2.73;;
21621;SDS011;10973;46.706;12.340;2023-02-21T02:24:11;3.87;;;2.20;;
21621;SDS011;10973;46.706;12.340;2023-02-21T02:41:24;2.63;;;2.20;;
21621;SDS011;10973;46.706;12.340;2023-02-21T02:46:50;2.60;;;2.40;;
21621;SDS011;10973;46.706;12.340;2023-02-21T02:53:24;4.40;;;2.33;;
21621;SDS011;10973;46.706;12.340;2023-02-21T02:59:54;3.63;;;2.77;;
21621;SDS011;10973;46.706;12.340;2023-02-21T03:05:03;4.53;;;3.60;;
21621;SDS011;10973;46.706;12.340;2023-02-21T03:17:47;3.73;;;2.73;;
21621;SDS011;10973;46.706;12.340;2023-02-21T03:20:26;3.23;;;2.93;;
21621;SDS011;10973;46.706;12.340;2023-02-21T03:22:55;3.33;;;2.43;;
21621;SDS011;10973;46.706;12.340;2023-02-21T03:25:24;2.87;;;2.60;;
21621;SDS011;10973;46.706;12.340;2023-02-21T03:27:55;3.20;;;2.70;;
21621;SDS011;10973;46.706;12.340;2023-02-21T03:30:22;2.93;;;2.73;;
21621;SDS011;10973;46.706;12.340;2023-02-21T03:36:56;2.20;;;2.10;;
21621;SDS011;10973;46.706;12.340;2023-02-21T03:39:23;2.13;;;2.03;;
21621;SDS011;10973;46.706;12.340;2023-02-21T03:41:50;3.67;;;2.37;;
21621;SDS011;10973;46.706;12.340;2023-02-21T03:52:17;2.77;;;2.37;;
21621;SDS011;10973;46.706;12.340;2023-02-21T03:54:45;2.67;;;2.30;;
21621;SDS011;10973;46.706;12.340;2023-02-21T03:57:12;2.10;;;2.00;;
21621;SDS011;10973;46.706;12.340;2023-02-21T03:59:40;2.30;;;2.10;;
21621;SDS011;10973;46.706;12.340;2023-02-21T04:06:13;2.23;;;1.97;;
21621;SDS011;10973;46.706;12.340;2023-02-21T04:08:41;3.03;;;2.07;;
21621;SDS011;10973;46.706;12.340;2023-02-21T04:15:14;3.70;;;3.27;;
21621;SDS011;10973;46.706;12.340;2023-02-21T04:17:41;3.40;;;3.00;;
21621;SDS011;10973;46.706;12.340;2023-02-21T04:24:08;2.20;;;2.00;;
21621;SDS011;10973;46.706;12.340;2023-02-21T04:26:36;2.80;;;2.60;;
21621;SDS011;10973;46.706;12.340;2023-02-21T04:29:03;2.50;;;2.13;;
21621;SDS011;10973;46.706;12.340;2023-02-21T04:31:31;4.43;;;3.13;;
21621;SDS011;10973;46.706;12.340;2023-02-21T04:33:59;2.57;;;2.37;;
21621;SDS011;10973;46.706;12.340;2023-02-21T04:36:38;3.13;;;2.50;;
21621;SDS011;10973;46.706;12.340;2023-02-21T04:39:05;2.50;;;2.30;;
21621;SDS011;10973;46.706;12.340;2023-02-21T04:41:33;2.53;;;2.40;;
21621;SDS011;10973;46.706;12.340;2023-02-21T04:44:01;2.87;;;2.67;;
21621;SDS011;10973;46.706;12.340;2023-02-21T04:46:28;3.20;;;2.50;;
21621;SDS011;10973;46.706;12.340;2023-02-21T04:48:55;6.33;;;3.27;;
21621;SDS011;10973;46.706;12.340;2023-02-21T04:51:23;3.13;;;2.80;;
21621;SDS011;10973;46.706;12.340;2023-02-21T04:53:52;5.17;;;3.10;;
21621;SDS011;10973;46.706;12.340;2023-02-21T05:00:27;4.10;;;3.27;;
21621;SDS011;10973;46.706;12.340;2023-02-21T05:02:55;4.87;;;3.90;;
21621;SDS011;10973;46.706;12.340;2023-02-21T05:05:22;7.70;;;5.90;;
21621;SDS011;10973;46.706;12.340;2023-02-21T05:07:50;5.87;;;4.50;;
21621;SDS011;10973;46.706;12.340;2023-02-21T05:10:17;6.70;;;4.73;;
21621;SDS011;10973;46.706;12.340;2023-02-21T05:12:45;7.73;;;5.00;;
21621;SDS011;10973;46.706;12.340;2023-02-21T05:15:13;10.77;;;5.87;;
21621;SDS011;10973;46.706;12.340;2023-02-21T05:17:41;9.07;;;6.40;;
21621;SDS011;10973;46.706;12.340;2023-02-21T05:24:14;7.70;;;6.50;;
21621;SDS011;10973;46.706;12.340;2023-02-21T05:30:47;13.83;;;7.47;;
21621;SDS011;10973;46.706;12.340;2023-02-21T05:33:15;28.10;;;13.83;;
21621;SDS011;10973;46.706;12.340;2023-02-21T05:35:42;19.13;;;12.50;;
21621;SDS011;10973;46.706;12.340;2023-02-21T05:38:09;10.97;;;8.40;;
21621;SDS011;10973;46.706;12.340;2023-02-21T05:40:36;6.33;;;5.70;;
21621;SDS011;10973;46.706;12.340;2023-02-21T05:43:04;8.37;;;6.50;;
21621;SDS011;10973;46.706;12.340;2023-02-21T05:45:31;10.57;;;8.03;;
21621;SDS011;10973;46.706;12.340;2023-02-21T05:47:58;6.17;;;5.57;;
21621;SDS011;10973;46.706;12.340;2023-02-21T05:50:26;5.70;;;5.10;;
21621;SDS011;10973;46.706;12.340;2023-02-21T05:52:55;12.63;;;9.90;;
21621;SDS011;10973;46.706;12.340;2023-02-21T05:55:24;10.00;;;8.53;;
21621;SDS011;10973;46.706;12.340;2023-02-21T05:57:52;9.63;;;7.53;;
21621;SDS011;10973;46.706;12.340;2023-02-21T06:00:21;9.80;;;7.33;;
21621;SDS011;10973;46.706;12.340;2023-02-21T06:06:51;9.00;;;6.50;;
21621;SDS011;10973;46.706;12.340;2023-02-21T06:09:19;6.70;;;5.53;;
21621;SDS011;10973;46.706;12.340;2023-02-21T06:11:46;9.77;;;7.43;;
21621;SDS011;10973;46.706;12.340;2023-02-21T06:14:15;11.33;;;8.23;;
21621;SDS011;10973;46.706;12.340;2023-02-21T06:16:46;10.13;;;8.70;;
21621;SDS011;10973;46.706;12.340;2023-02-21T06:19:14;15.17;;;9.67;;
21621;SDS011;10973;46.706;12.340;2023-02-21T06:21:43;15.33;;;10.43;;
21621;SDS011;10973;46.706;12.340;2023-02-21T06:28:17;81.10;;;38.23;;
21621;SDS011;10973;46.706;12.340;2023-02-21T06:30:44;115.80;;;48.40;;
21621;SDS011;10973;46.706;12.340;2023-02-21T06:33:13;31.17;;;17.23;;
21621;SDS011;10973;46.706;12.340;2023-02-21T06:35:46;29.23;;;16.10;;
21621;SDS011;10973;46.706;12.340;2023-02-21T06:38:14;28.07;;;17.40;;
21621;SDS011;10973;46.706;12.340;2023-02-21T06:40:41;31.30;;;18.63;;
21621;SDS011;10973;46.706;12.340;2023-02-21T06:43:08;26.80;;;15.77;;
21621;SDS011;10973;46.706;12.340;2023-02-21T06:49:36;21.10;;;13.90;;
21621;SDS011;10973;46.706;12.340;2023-02-21T06:52:03;16.03;;;11.60;;
21621;SDS011;10973;46.706;12.340;2023-02-21T06:54:31;19.00;;;11.37;;
21621;SDS011;10973;46.706;12.340;2023-02-21T06:56:59;18.60;;;11.60;;
21621;SDS011;10973;46.706;12.340;2023-02-21T06:59:27;14.03;;;11.23;;
21621;SDS011;10973;46.706;12.340;2023-02-21T07:01:55;15.27;;;10.77;;
21621;SDS011;10973;46.706;12.340;2023-02-21T07:04:23;12.70;;;9.07;;
21621;SDS011;10973;46.706;12.340;2023-02-21T07:06:51;15.20;;;9.83;;
21621;SDS011;10973;46.706;12.340;2023-02-21T07:09:18;15.17;;;10.83;;
21621;SDS011;10973;46.706;12.340;2023-02-21T07:11:46;17.93;;;11.03;;
21621;SDS011;10973;46.706;12.340;2023-02-21T07:14:13;13.40;;;8.80;;
21621;SDS011;10973;46.706;12.340;2023-02-21T07:16:40;10.93;;;8.13;;
21621;SDS011;10973;46.706;12.340;2023-02-21T07:19:08;12.40;;;9.13;;
21621;SDS011;10973;46.706;12.340;2023-02-21T07:21:36;12.33;;;9.87;;
21621;SDS011;10973;46.706;12.340;2023-02-21T07:24:06;11.97;;;9.13;;
21621;SDS011;10973;46.706;12.340;2023-02-21T07:26:34;13.40;;;9.30;;
21621;SDS011;10973;46.706;12.340;2023-02-21T07:29:01;15.00;;;9.83;;
21621;SDS011;10973;46.706;12.340;2023-02-21T07:31:30;14.97;;;11.47;;
21621;SDS011;10973;46.706;12.340;2023-02-21T07:33:58;14.73;;;9.77;;
21621;SDS011;10973;46.706;12.340;2023-02-21T07:36:25;17.17;;;10.43;;
21621;SDS011;10973;46.706;12.340;2023-02-21T07:38:53;16.83;;;12.33;;
21621;SDS011;10973;46.706;12.340;2023-02-21T07:41:20;16.07;;;11.03;;
21621;SDS011;10973;46.706;12.340;2023-02-21T07:51:52;18.97;;;13.10;;
21621;SDS011;10973;46.706;12.340;2023-02-21T07:54:19;13.57;;;11.00;;
21621;SDS011;10973;46.706;12.340;2023-02-21T07:56:47;17.20;;;10.97;;
21621;SDS011;10973;46.706;12.340;2023-02-21T07:59:15;14.77;;;11.43;;
21621;SDS011;10973;46.706;12.340;2023-02-21T08:01:42;14.80;;;10.97;;
21621;SDS011;10973;46.706;12.340;2023-02-21T08:04:09;13.97;;;10.97;;
21621;SDS011;10973;46.706;12.340;2023-02-21T08:06:37;17.20;;;12.37;;
21621;SDS011;10973;46.706;12.340;2023-02-21T08:09:04;15.93;;;10.97;;
21621;SDS011;10973;46.706;12.340;2023-02-21T08:11:32;10.67;;;8.97;;
21621;SDS011;10973;46.706;12.340;2023-02-21T08:13:59;12.50;;;9.47;;
21621;SDS011;10973;46.706;12.340;2023-02-21T08:16:26;12.23;;;9.67;;
21621;SDS011;10973;46.706;12.340;2023-02-21T08:18:53;11.50;;;8.63;;
21621;SDS011;10973;46.706;12.340;2023-02-21T08:21:21;12.57;;;9.00;;
21621;SDS011;10973;46.706;12.340;2023-02-21T08:23:52;12.33;;;8.97;;
21621;SDS011;10973;46.706;12.340;2023-02-21T08:26:20;12.33;;;7.63;;
21621;SDS011;10973;46.706;12.340;2023-02-21T08:36:49;13.70;;;10.07;;
21621;SDS011;10973;46.706;12.340;2023-02-21T08:39:16;8.70;;;6.93;;
21621;SDS011;10973;46.706;12.340;2023-02-21T08:41:44;10.53;;;7.50;;
21621;SDS011;10973;46.706;12.340;2023-02-21T08:44:13;11.57;;;8.10;;
21621;SDS011;10973;46.706;12.340;2023-02-21T08:50:42;8.70;;;7.23;;
21621;SDS011;10973;46.706;12.340;2023-02-21T08:53:10;7.90;;;6.30;;
21621;SDS011;10973;46.706;12.340;2023-02-21T08:55:40;9.73;;;6.73;;
21621;SDS011;10973;46.706;12.340;2023-02-21T08:58:09;9.20;;;6.93;;
21621;SDS011;10973;46.706;12.340;2023-02-21T09:00:38;18.63;;;13.30;;
21621;SDS011;10973;46.706;12.340;2023-02-21T09:03:05;17.63;;;12.20;;
21621;SDS011;10973;46.706;12.340;2023-02-21T09:05:32;13.07;;;10.13;;
21621;SDS011;10973;46.706;12.340;2023-02-21T09:08:00;7.40;;;6.37;;
21621;SDS011;10973;46.706;12.340;2023-02-21T09:10:28;9.90;;;5.73;;
21621;SDS011;10973;46.706;12.340;2023-02-21T09:12:59;3.93;;;3.63;;
21621;SDS011;10973;46.706;12.340;2023-02-21T09:19:27;7.07;;;5.93;;
21621;SDS011;10973;46.706;12.340;2023-02-21T09:21:54;5.47;;;4.77;;
21621;SDS011;10973;46.706;12.340;2023-02-21T09:24:22;6.20;;;5.10;;
21621;SDS011;10973;46.706;12.340;2023-02-21T09:26:51;7.37;;;4.27;;
21621;SDS011;10973;46.706;12.340;2023-02-21T09:33:21;5.87;;;3.40;;
21621;SDS011;10973;46.706;12.340;2023-02-21T09:35:50;4.73;;;2.80;;
21621;SDS011;10973;46.706;12.340;2023-02-21T09:45:18;4.33;;;3.60;;
21621;SDS011;10973;46.706;12.340;2023-02-21T09:51:47;3.77;;;3.37;;
21621;SDS011;10973;46.706;12.340;2023-02-21T09:57:15;3.20;;;2.13;;
21621;SDS011;10973;46.706;12.340;2023-02-21T09:59:44;5.17;;;2.43;;
21621;SDS011;10973;46.706;12.340;2023-02-21T10:02:19;2.47;;;2.27;;
21621;SDS011;10973;46.706;12.340;2023-02-21T10:12:25;3.17;;;2.73;;
21621;SDS011;10973;46.706;12.340;2023-02-21T10:17:52;3.00;;;2.10;;
21621;SDS011;10973;46.706;12.340;2023-02-21T10:20:57;2.73;;;2.53;;
21621;SDS011;10973;46.706;12.340;2023-02-21T10:27:29;3.37;;;2.50;;
21621;SDS011;10973;46.706;12.340;2023-02-21T10:30:00;3.73;;;3.20;;
21621;SDS011;10973;46.706;12.340;2023-02-21T10:32:31;5.03;;;3.00;;
21621;SDS011;10973;46.706;12.340;2023-02-21T10:34:59;4.77;;;2.97;;
21621;SDS011;10973;46.706;12.340;2023-02-21T10:46:07;2.20;;;2.10;;
21621;SDS011;10973;46.706;12.340;2023-02-21T10:48:51;1.70;;;1.60;;
21621;SDS011;10973;46.706;12.340;2023-02-21T10:51:29;1.77;;;1.67;;
21621;SDS011;10973;46.706;12.340;2023-02-21T10:58:09;2.43;;;1.57;;
21621;SDS011;10973;46.706;12.340;2023-02-21T11:00:52;2.73;;;2.40;;
21621;SDS011;10973;46.706;12.340;2023-02-21T11:03:21;3.50;;;2.00;;
21621;SDS011;10973;46.706;12.340;2023-02-21T11:05:51;5.83;;;2.87;;
21621;SDS011;10973;46.706;12.340;2023-02-21T11:08:34;1.73;;;1.60;;
21621;SDS011;10973;46.706;12.340;2023-02-21T11:15:16;6.90;;;4.80;;
21621;SDS011;10973;46.706;12.340;2023-02-21T11:30:03;2.40;;;1.40;;
21621;SDS011;10973;46.706;12.340;2023-02-21T11:37:01;2.40;;;1.37;;
21621;SDS011;10973;46.706;12.340;2023-02-21T11:39:30;3.03;;;2.77;;
21621;SDS011;10973;46.706;12.340;2023-02-21T11:46:02;1.40;;;1.30;;
21621;SDS011;10973;46.706;12.340;2023-02-21T11:48:45;6.97;;;6.37;;
21621;SDS011;10973;46.706;12.340;2023-02-21T11:58:19;1.95;;;1.60;;
21621;SDS011;10973;46.706;12.340;2023-02-21T12:03:47;4.25;;;3.70;;
21621;SDS011;10973;46.706;12.340;2023-02-21T12:10:40;35.63;;;27.13;;
21621;SDS011;10973;46.706;12.340;2023-02-21T12:21:12;4.65;;;1.70;;
21621;SDS011;10973;46.706;12.340;2023-02-21T12:27:14;3.55;;;3.25;;
21621;SDS011;10973;46.706;12.340;2023-02-21T12:41:35;1.05;;;1.00;;
21621;SDS011;10973;46.706;12.340;2023-02-21T12:44:15;1.92;;;1.17;;
21621;SDS011;10973;46.706;12.340;2023-02-21T12:47:03;1.95;;;1.45;;
21621;SDS011;10973;46.706;12.340;2023-02-21T12:49:50;1.65;;;1.15;;
21621;SDS011;10973;46.706;12.340;2023-02-21T12:52:39;1.25;;;1.25;;
21621;SDS011;10973;46.706;12.340;2023-02-21T12:55:23;1.40;;;1.30;;
21621;SDS011;10973;46.706;12.340;2023-02-21T13:00:59;2.78;;;1.55;;
21621;SDS011;10973;46.706;12.340;2023-02-21T13:10:26;3.97;;;1.60;;
21621;SDS011;10973;46.706;12.340;2023-02-21T13:13:14;7.15;;;2.22;;
21621;SDS011;10973;46.706;12.340;2023-02-21T13:16:02;3.28;;;1.20;;
21621;SDS011;10973;46.706;12.340;2023-02-21T13:18:35;5.80;;;1.52;;
21621;SDS011;10973;46.706;12.340;2023-02-21T13:28:30;1.38;;;1.15;;
21621;SDS011;10973;46.706;12.340;2023-02-21T13:30:59;1.13;;;1.00;;
21621;SDS011;10973;46.706;12.340;2023-02-21T13:33:37;2.00;;;1.10;;
21621;SDS011;10973;46.706;12.340;2023-02-21T13:41:53;1.40;;;1.30;;
21621;SDS011;10973;46.706;12.340;2023-02-21T13:54:30;1.10;;;1.10;;
21621;SDS011;10973;46.706;12.340;2023-02-21T13:56:58;1.93;;;1.13;;
21621;SDS011;10973;46.706;12.340;2023-02-21T13:59:30;3.20;;;1.50;;
21621;SDS011;10973;46.706;12.340;2023-02-21T14:11:19;4.57;;;1.50;;
21621;SDS011;10973;46.706;12.340;2023-02-21T14:16:27;2.27;;;1.30;;
21621;SDS011;10973;46.706;12.340;2023-02-21T14:19:21;1.50;;;1.40;;
21621;SDS011;10973;46.706;12.340;2023-02-21T14:32:40;3.43;;;1.60;;
21621;SDS011;10973;46.706;12.340;2023-02-21T14:35:23;3.30;;;1.40;;
21621;SDS011;10973;46.706;12.340;2023-02-21T14:38:03;3.43;;;1.90;;
21621;SDS011;10973;46.706;12.340;2023-02-21T14:43:35;2.23;;;2.03;;
21621;SDS011;10973;46.706;12.340;2023-02-21T15:07:20;2.30;;;2.10;;
21621;SDS011;10973;46.706;12.340;2023-02-21T15:10:23;5.83;;;4.37;;
21621;SDS011;10973;46.706;12.340;2023-02-21T15:17:01;14.57;;;10.33;;
21621;SDS011;10973;46.706;12.340;2023-02-21T15:19:44;12.67;;;9.23;;
21621;SDS011;10973;46.706;12.340;2023-02-21T15:24:58;38.20;;;26.10;;
21621;SDS011;10973;46.706;12.340;2023-02-21T15:34:15;12.93;;;7.40;;
21621;SDS011;10973;46.706;12.340;2023-02-21T15:36:54;20.43;;;10.73;;
21621;SDS011;10973;46.706;12.340;2023-02-21T15:39:31;7.17;;;4.80;;
21621;SDS011;10973;46.706;12.340;2023-02-21T15:42:06;9.10;;;4.37;;
21621;SDS011;10973;46.706;12.340;2023-02-21T15:44:41;6.13;;;5.00;;
21621;SDS011;10973;46.706;12.340;2023-02-21T15:47:20;16.93;;;9.27;;
21621;SDS011;10973;46.706;12.340;2023-02-21T15:57:00;38.97;;;19.90;;
21621;SDS011;10973;46.706;12.340;2023-02-21T15:59:34;25.93;;;14.20;;
21621;SDS011;10973;46.706;12.340;2023-02-21T16:02:12;32.73;;;20.93;;
21621;SDS011;10973;46.706;12.340;2023-02-21T16:04:47;39.40;;;22.83;;
21621;SDS011;10973;46.706;12.340;2023-02-21T16:11:36;16.93;;;9.17;;
21621;SDS011;10973;46.706;12.340;2023-02-21T16:23:21;12.30;;;7.97;;
21621;SDS011;10973;46.706;12.340;2023-02-21T16:30:02;19.03;;;9.30;;
21621;SDS011;10973;46.706;12.340;2023-02-21T16:32:32;21.33;;;10.23;;
21621;SDS011;10973;46.706;12.340;2023-02-21T16:43:05;12.03;;;7.47;;
21621;SDS011;10973;46.706;12.340;2023-02-21T16:45:32;7.93;;;6.97;;
21621;SDS011;10973;46.706;12.340;2023-02-21T16:48:01;11.67;;;7.23;;
21621;SDS011;10973;46.706;12.340;2023-02-21T16:50:32;8.40;;;7.10;;
21621;SDS011;10973;46.706;12.340;2023-02-21T16:57:02;10.07;;;7.53;;
21621;SDS011;10973;46.706;12.340;2023-02-21T17:03:29;12.97;;;10.00;;
21621;SDS011;10973;46.706;12.340;2023-02-21T17:12:43;6.27;;;5.13;;
21621;SDS011;10973;46.706;12.340;2023-02-21T17:19:17;18.70;;;10.40;;
21621;SDS011;10973;46.706;12.340;2023-02-21T17:21:46;16.97;;;10.17;;
21621;SDS011;10973;46.706;12.340;2023-02-21T17:24:30;11.37;;;8.77;;
21621;SDS011;10973;46.706;12.340;2023-02-21T17:35:34;11.97;;;8.37;;
21621;SDS011;10973;46.706;12.340;2023-02-21T17:38:03;12.77;;;8.17;;
21621;SDS011;10973;46.706;12.340;2023-02-21T17:43:01;17.47;;;12.33;;
21621;SDS011;10973;46.706;12.340;2023-02-21T17:45:28;20.13;;;13.40;;
21621;SDS011;10973;46.706;12.340;2023-02-21T17:47:56;19.07;;;13.63;;
21621;SDS011;10973;46.706;12.340;2023-02-21T17:50:23;19.27;;;13.33;;
21621;SDS011;10973;46.706;12.340;2023-02-21T17:52:50;18.30;;;12.47;;
21621;SDS011;10973;46.706;12.340;2023-02-21T17:55:19;21.93;;;15.57;;
21621;SDS011;10973;46.706;12.340;2023-02-21T17:57:52;20.60;;;14.70;;
21621;SDS011;10973;46.706;12.340;2023-02-21T18:00:21;21.40;;;14.00;;
21621;SDS011;10973;46.706;12.340;2023-02-21T18:02:51;17.03;;;13.83;;
21621;SDS011;10973;46.706;12.340;2023-02-21T18:05:20;18.03;;;12.30;;
21621;SDS011;10973;46.706;12.340;2023-02-21T18:07:49;20.47;;;11.97;;
21621;SDS011;10973;46.706;12.340;2023-02-21T18:10:20;16.50;;;11.23;;
21621;SDS011;10973;46.706;12.340;2023-02-21T18:12:51;15.87;;;11.13;;
21621;SDS011;10973;46.706;12.340;2023-02-21T18:15:21;17.87;;;11.13;;
21621;SDS011;10973;46.706;12.340;2023-02-21T18:17:51;12.80;;;10.63;;
21621;SDS011;10973;46.706;12.340;2023-02-21T18:20:19;15.07;;;11.27;;
21621;SDS011;10973;46.706;12.340;2023-02-21T18:22:46;15.80;;;10.80;;
21621;SDS011;10973;46.706;12.340;2023-02-21T18:25:15;12.20;;;8.70;;
21621;SDS011;10973;46.706;12.340;2023-02-21T18:27:46;11.90;;;7.33;;
21621;SDS011;10973;46.706;12.340;2023-02-21T18:30:18;9.50;;;7.37;;
21621;SDS011;10973;46.706;12.340;2023-02-21T18:32:46;8.63;;;6.63;;
21621;SDS011;10973;46.706;12.340;2023-02-21T18:35:14;8.33;;;6.40;;
21621;SDS011;10973;46.706;12.340;2023-02-21T18:37:42;7.33;;;5.83;;
21621;SDS011;10973;46.706;12.340;2023-02-21T18:40:11;10.27;;;6.87;;
21621;SDS011;10973;46.706;12.340;2023-02-21T18:42:41;16.37;;;11.90;;
21621;SDS011;10973;46.706;12.340;2023-02-21T18:45:09;21.30;;;14.70;;
21621;SDS011;10973;46.706;12.340;2023-02-21T18:47:38;14.60;;;10.47;;
21621;SDS011;10973;46.706;12.340;2023-02-21T18:50:05;14.23;;;10.03;;
21621;SDS011;10973;46.706;12.340;2023-02-21T18:52:33;20.13;;;12.57;;
21621;SDS011;10973;46.706;12.340;2023-02-21T18:55:01;15.93;;;10.33;;
21621;SDS011;10973;46.706;12.340;2023-02-21T18:57:29;12.00;;;8.73;;
21621;SDS011;10973;46.706;12.340;2023-02-21T18:59:57;22.03;;;12.30;;
21621;SDS011;10973;46.706;12.340;2023-02-21T19:02:24;15.53;;;10.57;;
21621;SDS011;10973;46.706;12.340;2023-02-21T19:04:52;21.27;;;14.03;;
21621;SDS011;10973;46.706;12.340;2023-02-21T19:07:19;18.17;;;12.37;;
21621;SDS011;10973;46.706;12.340;2023-02-21T19:09:47;15.23;;;9.93;;
21621;SDS011;10973;46.706;12.340;2023-02-21T19:12:15;12.40;;;7.77;;
21621;SDS011;10973;46.706;12.340;2023-02-21T19:14:43;11.77;;;7.80;;
21621;SDS011;10973;46.706;12.340;2023-02-21T19:17:10;8.47;;;6.67;;
21621;SDS011;10973;46.706;12.340;2023-02-21T19:19:38;8.90;;;6.73;;
21621;SDS011;10973;46.706;12.340;2023-02-21T19:22:05;10.73;;;6.53;;
21621;SDS011;10973;46.706;12.340;2023-02-21T19:24:36;8.43;;;6.30;;
21621;SDS011;10973;46.706;12.340;2023-02-21T19:27:03;14.83;;;9.17;;
21621;SDS011;10973;46.706;12.340;2023-02-21T19:29:30;10.93;;;8.83;;
21621;SDS011;10973;46.706;12.340;2023-02-21T19:31:58;10.70;;;7.77;;
21621;SDS011;10973;46.706;12.340;2023-02-21T19:34:25;15.77;;;8.53;;
21621;SDS011;10973;46.706;12.340;2023-02-21T19:36:53;13.23;;;8.50;;
21621;SDS011;10973;46.706;12.340;2023-02-21T19:39:20;17.43;;;10.10;;
21621;SDS011;10973;46.706;12.340;2023-02-21T19:41:48;15.23;;;10.03;;
21621;SDS011;10973;46.706;12.340;2023-02-21T19:44:15;19.57;;;9.77;;
21621;SDS011;10973;46.706;12.340;2023-02-21T19:46:43;20.47;;;10.53;;
21621;SDS011;10973;46.706;12.340;2023-02-21T19:53:18;9.20;;;6.40;;
21621;SDS011;10973;46.706;12.340;2023-02-21T19:55:45;7.90;;;5.73;;
21621;SDS011;10973;46.706;12.340;2023-02-21T19:58:12;8.07;;;5.20;;
21621;SDS011;10973;46.706;12.340;2023-02-21T20:00:40;6.43;;;5.33;;
21621;SDS011;10973;46.706;12.340;2023-02-21T20:03:07;8.10;;;6.57;;
21621;SDS011;10973;46.706;12.340;2023-02-21T20:05:35;8.23;;;6.83;;
21621;SDS011;10973;46.706;12.340;2023-02-21T20:08:03;8.63;;;6.67;;
21621;SDS011;10973;46.706;12.340;2023-02-21T20:10:31;13.17;;;9.13;;
21621;SDS011;10973;46.706;12.340;2023-02-21T20:12:58;13.83;;;10.57;;
21621;SDS011;10973;46.706;12.340;2023-02-21T20:15:25;14.27;;;10.57;;
21621;SDS011;10973;46.706;12.340;2023-02-21T20:17:53;16.13;;;11.10;;
21621;SDS011;10973;46.706;12.340;2023-02-21T20:24:26;21.43;;;13.37;;
21621;SDS011;10973;46.706;12.340;2023-02-21T20:26:53;19.73;;;14.03;;
21621;SDS011;10973;46.706;12.340;2023-02-21T20:29:20;19.57;;;13.07;;
21621;SDS011;10973;46.706;12.340;2023-02-21T20:31:48;15.40;;;9.47;;
21621;SDS011;10973;46.706;12.340;2023-02-21T20:34:15;12.50;;;8.57;;
21621;SDS011;10973;46.706;12.340;2023-02-21T20:40:49;5.37;;;4.87;;
21621;SDS011;10973;46.706;12.340;2023-02-21T20:43:19;7.17;;;5.73;;
21621;SDS011;10973;46.706;12.340;2023-02-21T20:45:46;5.87;;;5.10;;
21621;SDS011;10973;46.706;12.340;2023-02-21T20:52:21;5.10;;;4.50;;
21621;SDS011;10973;46.706;12.340;2023-02-21T20:54:48;4.10;;;3.57;;
21621;SDS011;10973;46.706;12.340;2023-02-21T20:57:15;6.17;;;4.00;;
21621;SDS011;10973;46.706;12.340;2023-02-21T21:03:30;7.47;;;3.83;;
21621;SDS011;10973;46.706;12.340;2023-02-21T21:05:57;4.50;;;3.70;;
21621;SDS011;10973;46.706;12.340;2023-02-21T21:08:25;7.50;;;4.20;;
21621;SDS011;10973;46.706;12.340;2023-02-21T21:10:52;8.77;;;5.00;;
21621;SDS011;10973;46.706;12.340;2023-02-21T21:13:20;6.90;;;5.33;;
21621;SDS011;10973;46.706;12.340;2023-02-21T21:15:48;5.43;;;4.87;;
21621;SDS011;10973;46.706;12.340;2023-02-21T21:18:15;6.33;;;4.70;;
21621;SDS011;10973;46.706;12.340;2023-02-21T21:20:42;5.27;;;4.20;;
21621;SDS011;10973;46.706;12.340;2023-02-21T21:23:10;5.30;;;4.00;;
21621;SDS011;10973;46.706;12.340;2023-02-21T21:25:37;6.20;;;4.40;;
21621;SDS011;10973;46.706;12.340;2023-02-21T21:28:05;7.67;;;5.13;;
21621;SDS011;10973;46.706;12.340;2023-02-21T21:30:32;9.40;;;5.70;;
21621;SDS011;10973;46.706;12.340;2023-02-21T21:33:00;12.00;;;6.00;;
21621;SDS011;10973;46.706;12.340;2023-02-21T21:35:27;13.07;;;5.67;;
21621;SDS011;10973;46.706;12.340;2023-02-21T21:37:55;15.20;;;6.63;;
21621;SDS011;10973;46.706;12.340;2023-02-21T21:40:24;11.23;;;4.03;;
21621;SDS011;10973;46.706;12.340;2023-02-21T21:42:52;10.20;;;4.80;;
21621;SDS011;10973;46.706;12.340;2023-02-21T21:45:24;7.93;;;3.90;;
21621;SDS011;10973;46.706;12.340;2023-02-21T21:47:54;6.73;;;3.43;;
21621;SDS011;10973;46.706;12.340;2023-02-21T21:50:23;4.87;;;2.93;;
21621;SDS011;10973;46.706;12.340;2023-02-21T21:52:52;6.90;;;3.40;;
21621;SDS011;10973;46.706;12.340;2023-02-21T21:55:23;4.60;;;3.00;;